Time;durP1;ratioP1;P1;durP2;ratioP2;P2;SDS_P1;SDS_P2;PMS_P1;PMS_P2;Temp;Humidity;BMP_temperature;BMP_pressure;BME280_temperature;BME280_humidity;BME280_pressure;Samples;Min_cycle;Max_cycle;Signal;HPM_P1;HPM_P2
2023/05/24 00:01:02;;;;;;;1.50;1.10;;;10.20;98.20;;;;;;5060296;28;20493;-78
2023/05/24 00:03:33;;;;;;;1.50;1.10;;;10.20;98.20;;;;;;5067301;28;21074;-77
2023/05/24 00:06:00;;;;;;;1.50;1.10;;;10.10;98.20;;;;;;5067402;28;20778;-78
2023/05/24 00:08:27;;;;;;;1.50;1.20;;;10.10;98.20;;;;;;5067329;28;20466;-78
2023/05/24 00:10:54;;;;;;;1.50;1.10;;;10.10;98.20;;;;;;5060051;28;20526;-78
2023/05/24 00:13:22;;;;;;;1.50;1.20;;;10.10;98.20;;;;;;5064186;28;20477;-78
2023/05/24 00:15:49;;;;;;;1.60;1.50;;;10.10;98.20;;;;;;5066764;28;20458;-78
2023/05/24 00:18:17;;;;;;;1.50;1.10;;;10.10;98.20;;;;;;5058431;28;20458;-78
2023/05/24 00:20:44;;;;;;;1.50;1.10;;;10.00;98.20;;;;;;5064981;28;20477;-78
2023/05/24 00:23:11;;;;;;;1.50;1.17;;;10.00;98.20;;;;;;5067410;28;20986;-78
2023/05/24 00:25:37;;;;;;;1.50;1.10;;;10.00;98.20;;;;;;5065949;28;20481;-78
2023/05/24 00:28:04;;;;;;;1.50;1.10;;;10.00;98.20;;;;;;5065277;28;20479;-79
2023/05/24 00:30:32;;;;;;;1.50;1.10;;;10.00;98.20;;;;;;5069490;28;20453;-78
2023/05/24 00:32:59;;;;;;;1.50;1.10;;;9.90;98.20;;;;;;5061534;28;20480;-78
2023/05/24 00:35:26;;;;;;;1.50;1.20;;;9.90;98.20;;;;;;5069516;28;20457;-78
2023/05/24 00:37:52;;;;;;;1.50;1.20;;;9.80;98.20;;;;;;5064102;28;20947;-78
2023/05/24 00:40:19;;;;;;;1.50;1.00;;;9.80;98.20;;;;;;5070688;28;20462;-78
2023/05/24 00:42:46;;;;;;;1.50;1.20;;;9.80;98.20;;;;;;5062574;28;20471;-79
2023/05/24 00:45:13;;;;;;;1.50;1.10;;;9.70;98.20;;;;;;5067470;28;20461;-78
2023/05/24 00:47:41;;;;;;;1.50;1.10;;;9.70;98.20;;;;;;5069835;28;20476;-78
2023/05/24 00:50:11;;;;;;;1.50;1.10;;;9.70;98.20;;;;;;5070319;28;20526;-78
2023/05/24 00:52:39;;;;;;;1.50;1.20;;;9.60;98.20;;;;;;5069277;28;20458;-78
2023/05/24 00:55:07;;;;;;;1.50;1.20;;;9.60;98.20;;;;;;5062768;28;20844;-78
2023/05/24 00:57:35;;;;;;;1.50;1.23;;;9.60;98.20;;;;;;5069266;28;20453;-78
2023/05/24 01:00:04;;;;;;;1.50;1.23;;;9.60;98.20;;;;;;5066489;28;20454;-78
2023/05/24 01:02:34;;;;;;;1.50;1.30;;;9.60;98.20;;;;;;5064471;28;20486;-78
2023/05/24 01:05:02;;;;;;;1.50;1.10;;;9.50;98.20;;;;;;5059859;28;20454;-78
2023/05/24 01:07:36;;;;;;;1.50;1.20;;;9.50;98.20;;;;;;5067689;28;20509;-78
2023/05/24 01:10:10;;;;;;;1.50;1.17;;;9.50;98.20;;;;;;5069789;28;20461;-78
2023/05/24 01:12:51;;;;;;;1.50;1.20;;;9.50;98.20;;;;;;5065114;28;20458;-78
2023/05/24 01:15:25;;;;;;;1.50;1.20;;;9.50;98.20;;;;;;5065543;28;20708;-78
2023/05/24 01:18:00;;;;;;;1.50;1.10;;;9.40;98.20;;;;;;5064304;28;20466;-78
2023/05/24 01:20:32;;;;;;;1.50;1.20;;;9.40;98.20;;;;;;5067708;28;20479;-78
2023/05/24 01:23:13;;;;;;;1.50;1.20;;;9.40;98.20;;;;;;5069145;28;20576;-78
2023/05/24 01:25:55;;;;;;;1.50;1.10;;;9.40;98.20;;;;;;5070004;28;20576;-79
2023/05/24 01:28:24;;;;;;;1.50;1.20;;;9.40;98.20;;;;;;5047399;28;20483;-78
2023/05/24 01:30:52;;;;;;;1.50;1.20;;;9.30;98.20;;;;;;5061269;28;20994;-78
2023/05/24 01:33:19;;;;;;;1.50;1.20;;;9.30;98.20;;;;;;5066131;28;20481;-78
2023/05/24 01:35:45;;;;;;;2.50;2.30;;;9.30;98.20;;;;;;5053972;28;20458;-78
2023/05/24 01:38:14;;;;;;;1.60;1.30;;;9.20;98.20;;;;;;5063164;28;20459;-78
2023/05/24 01:40:41;;;;;;;1.50;1.10;;;9.20;98.20;;;;;;5061270;28;20809;-78
2023/05/24 01:43:15;;;;;;;1.50;1.20;;;9.20;98.20;;;;;;5065131;28;20497;-78
2023/05/24 01:45:53;;;;;;;1.50;1.20;;;9.20;98.20;;;;;;5069418;28;20806;-78
2023/05/24 01:48:33;;;;;;;1.50;1.30;;;9.10;98.20;;;;;;5066474;28;20538;-79
2023/05/24 01:51:01;;;;;;;1.50;1.20;;;9.10;98.20;;;;;;5068866;28;20457;-77
2023/05/24 01:53:33;;;;;;;1.50;1.20;;;9.10;98.20;;;;;;5071925;28;20549;-78
2023/05/24 01:56:03;;;;;;;1.50;1.20;;;9.10;98.20;;;;;;5070176;28;20529;-78
2023/05/24 01:58:30;;;;;;;1.50;1.20;;;9.00;98.20;;;;;;5070482;28;20552;-78
2023/05/24 02:01:00;;;;;;;1.50;1.20;;;9.00;98.20;;;;;;5064298;28;20649;-78
2023/05/24 02:03:26;;;;;;;1.50;1.20;;;9.00;98.20;;;;;;5074325;28;20573;-78
2023/05/24 02:05:53;;;;;;;1.50;1.23;;;9.00;98.20;;;;;;5068255;28;20461;-78
2023/05/24 02:08:20;;;;;;;1.53;1.20;;;8.90;98.20;;;;;;5071652;28;20453;-79
2023/05/24 02:10:47;;;;;;;1.50;1.10;;;8.90;98.20;;;;;;5063287;28;20508;-77
2023/05/24 02:13:15;;;;;;;1.50;1.20;;;8.90;98.20;;;;;;5060815;28;20543;-78
2023/05/24 02:15:42;;;;;;;1.50;1.20;;;8.90;98.20;;;;;;5061069;28;20454;-78
2023/05/24 02:18:10;;;;;;;1.50;1.20;;;8.80;98.20;;;;;;5062037;28;20489;-78
2023/05/24 02:20:37;;;;;;;1.50;1.20;;;8.80;98.20;;;;;;5062358;28;20467;-79
2023/05/24 02:23:04;;;;;;;1.50;1.20;;;8.80;98.20;;;;;;5065725;28;20496;-78
2023/05/24 02:25:31;;;;;;;1.50;1.20;;;8.80;98.20;;;;;;5059387;28;20458;-78
2023/05/24 02:27:58;;;;;;;1.50;1.20;;;8.80;98.20;;;;;;5059757;28;20466;-78
2023/05/24 02:30:26;;;;;;;1.50;1.20;;;8.70;98.20;;;;;;5059948;28;20462;-77
2023/05/24 02:32:52;;;;;;;1.50;1.13;;;8.70;98.20;;;;;;5062414;28;20528;-78
2023/05/24 02:35:21;;;;;;;1.57;1.30;;;8.70;98.20;;;;;;5067003;28;20453;-78
2023/05/24 02:37:48;;;;;;;1.50;1.20;;;8.70;98.20;;;;;;5058760;28;20489;-77
2023/05/24 02:40:14;;;;;;;1.50;1.20;;;8.70;98.20;;;;;;5056778;28;20587;-78
2023/05/24 02:42:41;;;;;;;1.50;1.20;;;8.70;98.20;;;;;;5060789;28;20489;-78
2023/05/24 02:45:09;;;;;;;1.50;1.20;;;8.70;98.20;;;;;;5061428;28;20493;-78
2023/05/24 02:47:35;;;;;;;1.50;1.20;;;8.70;98.20;;;;;;5061798;28;20478;-78
2023/05/24 02:50:02;;;;;;;1.50;1.20;;;8.60;98.20;;;;;;5061851;28;20488;-78
2023/05/24 02:52:31;;;;;;;1.50;1.30;;;8.60;98.20;;;;;;5058142;28;20456;-77
2023/05/24 02:54:58;;;;;;;1.53;1.30;;;8.60;98.20;;;;;;5060918;28;20501;-78
2023/05/24 02:57:27;;;;;;;1.53;1.20;;;8.60;98.20;;;;;;5063195;28;20519;-78
2023/05/24 02:59:54;;;;;;;1.50;1.20;;;8.60;98.20;;;;;;5059288;28;20464;-78
2023/05/24 03:02:21;;;;;;;1.50;1.20;;;8.60;98.20;;;;;;5061881;28;20477;-78
2023/05/24 03:04:48;;;;;;;1.50;1.20;;;8.60;98.20;;;;;;5059413;28;20489;-77
2023/05/24 03:07:15;;;;;;;1.50;1.30;;;8.60;98.20;;;;;;5063189;28;20461;-78
2023/05/24 03:09:43;;;;;;;1.50;1.23;;;8.60;98.20;;;;;;5063693;28;20465;-78
2023/05/24 03:12:11;;;;;;;1.53;1.30;;;8.60;98.20;;;;;;5058941;28;20490;-78
2023/05/24 03:14:38;;;;;;;1.50;1.20;;;8.60;98.20;;;;;;5057593;28;20477;-78
2023/05/24 03:17:05;;;;;;;1.50;1.20;;;8.60;98.20;;;;;;5062799;28;20464;-78
2023/05/24 03:19:32;;;;;;;1.50;1.30;;;8.50;98.20;;;;;;5060615;28;20481;-78
2023/05/24 03:21:58;;;;;;;1.50;1.20;;;8.50;98.20;;;;;;5054357;28;20881;-78
2023/05/24 03:24:26;;;;;;;1.50;1.20;;;8.50;98.20;;;;;;5058632;28;20481;-79
2023/05/24 03:26:54;;;;;;;1.50;1.20;;;8.50;98.20;;;;;;5073107;22;20494;-86
2023/05/24 03:29:21;;;;;;;1.50;1.10;;;8.50;98.20;;;;;;5044812;28;20443;-84
2023/05/24 03:31:48;;;;;;;1.50;1.20;;;8.50;98.20;;;;;;5046506;28;20482;-86
2023/05/24 03:34:14;;;;;;;1.50;1.20;;;8.50;98.20;;;;;;5038544;28;20478;-87
2023/05/24 03:36:42;;;;;;;1.50;1.30;;;8.40;98.20;;;;;;5052401;28;20462;-87
2023/05/24 03:39:08;;;;;;;1.50;1.20;;;8.40;98.20;;;;;;5037454;28;20464;-89
2023/05/24 03:41:35;;;;;;;1.50;1.30;;;8.40;98.20;;;;;;5029876;28;20451;-88
2023/05/24 03:44:03;;;;;;;1.50;1.20;;;8.40;98.20;;;;;;5037033;28;20482;-88
2023/05/24 03:46:30;;;;;;;1.57;1.30;;;8.40;98.20;;;;;;5046114;28;20471;-88
2023/05/24 03:48:57;;;;;;;1.50;1.20;;;8.40;98.20;;;;;;5038084;28;20969;-90
2023/05/24 03:51:28;;;;;;;1.50;1.20;;;8.40;98.20;;;;;;5035535;28;20514;-89
2023/05/24 03:53:55;;;;;;;1.50;1.20;;;8.40;98.20;;;;;;5035822;28;20481;-88
2023/05/24 03:56:22;;;;;;;1.50;1.20;;;8.40;98.20;;;;;;5039328;28;20484;-90
2023/05/24 03:58:48;;;;;;;1.50;1.20;;;8.40;98.20;;;;;;5036620;28;20494;-88
2023/05/24 04:01:18;;;;;;;1.53;1.30;;;8.40;98.20;;;;;;5044401;28;20460;-87
2023/05/24 04:03:45;;;;;;;1.50;1.20;;;8.40;98.20;;;;;;5048594;28;20463;-89
2023/05/24 04:06:12;;;;;;;1.50;1.20;;;8.40;98.20;;;;;;5051494;28;20463;-89
2023/05/24 04:08:39;;;;;;;1.50;1.23;;;8.50;98.20;;;;;;5051971;28;20458;-88
2023/05/24 04:11:06;;;;;;;1.50;1.20;;;8.50;98.20;;;;;;5046366;28;20470;-88
2023/05/24 04:13:33;;;;;;;1.50;1.20;;;8.50;98.20;;;;;;5040754;28;20482;-88
2023/05/24 04:16:00;;;;;;;1.50;1.20;;;8.50;98.20;;;;;;5033256;28;20674;-88
2023/05/24 04:18:28;;;;;;;1.50;1.20;;;8.50;98.20;;;;;;5047422;28;20474;-89
2023/05/24 04:20:54;;;;;;;1.50;1.20;;;8.50;98.20;;;;;;5042573;28;20462;-87
2023/05/24 04:23:21;;;;;;;1.50;1.20;;;8.60;98.20;;;;;;5043855;28;20501;-87
2023/05/24 04:25:48;;;;;;;1.50;1.20;;;8.60;98.20;;;;;;5046780;28;20491;-87
2023/05/24 04:28:15;;;;;;;1.50;1.20;;;8.60;98.20;;;;;;5043927;28;20466;-88
2023/05/24 04:30:44;;;;;;;1.50;1.20;;;8.60;98.20;;;;;;5030968;28;20494;-88
2023/05/24 04:33:11;;;;;;;1.50;1.30;;;8.70;98.20;;;;;;5033897;28;21283;-88
2023/05/24 04:35:40;;;;;;;1.50;1.20;;;8.70;98.20;;;;;;5047535;28;20479;-90
2023/05/24 04:38:07;;;;;;;1.50;1.20;;;8.80;98.20;;;;;;5047184;28;20459;-89
2023/05/24 04:40:34;;;;;;;1.50;1.10;;;8.80;98.20;;;;;;5041214;28;20872;-91
2023/05/24 04:43:10;;;;;;;1.50;1.20;;;8.80;98.20;;;;;;5049873;28;20459;-90
2023/05/24 04:45:37;;;;;;;1.50;1.20;;;8.90;98.20;;;;;;5043555;28;20490;-87
2023/05/24 04:48:04;;;;;;;1.50;1.20;;;9.00;98.20;;;;;;5038409;28;20463;-88
2023/05/24 04:50:31;;;;;;;1.50;1.20;;;9.10;98.20;;;;;;5048642;28;20455;-86
2023/05/24 04:52:59;;;;;;;1.50;1.10;;;9.20;98.20;;;;;;5047395;28;20489;-88
2023/05/24 04:55:26;;;;;;;1.50;1.20;;;9.30;98.20;;;;;;5049909;28;20849;-87
2023/05/24 04:57:53;;;;;;;1.50;1.10;;;9.30;98.20;;;;;;5043039;28;20469;-87
2023/05/24 05:00:21;;;;;;;1.50;1.20;;;9.40;98.20;;;;;;5038926;28;20464;-87
2023/05/24 05:02:48;;;;;;;1.50;1.07;;;9.50;98.20;;;;;;5041390;28;20512;-86
2023/05/24 05:05:15;;;;;;;1.50;1.10;;;9.70;98.20;;;;;;5041450;28;20482;-86
2023/05/24 05:07:41;;;;;;;1.50;1.13;;;9.90;98.20;;;;;;5044189;28;20458;-86
2023/05/24 05:10:10;;;;;;;1.50;1.10;;;9.90;98.20;;;;;;5044553;28;20480;-87
2023/05/24 05:12:37;;;;;;;1.50;1.10;;;10.00;98.20;;;;;;5047257;28;20846;-86
2023/05/24 05:15:06;;;;;;;1.50;1.10;;;10.10;98.20;;;;;;5053348;28;20481;-87
2023/05/24 05:17:37;;;;;;;1.50;1.23;;;10.20;98.20;;;;;;5053309;28;20539;-90
2023/05/24 05:20:07;;;;;;;1.50;1.10;;;10.40;98.20;;;;;;5054122;28;20462;-89
2023/05/24 05:22:45;;;;;;;1.50;1.13;;;10.70;98.20;;;;;;5045747;28;20515;-88
2023/05/24 05:25:17;;;;;;;1.50;1.10;;;11.00;98.20;;;;;;5042768;28;20493;-89
2023/05/24 05:27:50;;;;;;;1.50;1.10;;;11.10;98.20;;;;;;5055610;28;20470;-86
2023/05/24 05:30:17;;;;;;;1.50;1.10;;;11.30;98.20;;;;;;5050952;28;20545;-90
2023/05/24 05:33:25;;;;;;;1.50;1.10;;;11.50;98.20;;;;;;5053685;28;20479;-88
2023/05/24 05:35:57;;;;;;;1.50;1.10;;;11.70;98.20;;;;;;4997405;28;20480;-87
2023/05/24 05:38:27;;;;;;;1.50;1.10;;;11.90;98.20;;;;;;5005863;28;20471;-87
2023/05/24 05:40:56;;;;;;;1.50;1.10;;;12.00;98.20;;;;;;5003587;28;20538;-88
2023/05/24 05:43:23;;;;;;;1.50;1.00;;;12.20;98.20;;;;;;5015025;28;20466;-88
2023/05/24 05:45:50;;;;;;;1.50;1.00;;;12.30;98.20;;;;;;5056062;28;20555;-87
2023/05/24 05:48:17;;;;;;;1.50;1.10;;;12.40;98.20;;;;;;5060337;28;20459;-90
2023/05/24 05:50:44;;;;;;;1.50;1.10;;;12.30;98.20;;;;;;5047843;28;20931;-89
2023/05/24 05:53:11;;;;;;;1.50;1.10;;;12.40;98.20;;;;;;5056092;28;20567;-90
2023/05/24 05:55:38;;;;;;;1.50;1.10;;;12.50;98.20;;;;;;5048092;28;21074;-88
2023/05/24 05:58:06;;;;;;;1.50;1.00;;;12.50;98.20;;;;;;5060613;28;20458;-87
2023/05/24 06:00:33;;;;;;;1.50;1.00;;;12.60;98.20;;;;;;5050703;28;20455;-88
2023/05/24 06:02:59;;;;;;;1.50;1.10;;;12.70;98.20;;;;;;5051304;28;20462;-91
2023/05/24 06:05:35;;;;;;;1.50;1.00;;;12.70;98.20;;;;;;5052445;28;20578;-88
2023/05/24 06:08:02;;;;;;;1.50;1.10;;;12.80;98.20;;;;;;5058430;28;20459;-89
2023/05/24 06:10:29;;;;;;;1.50;1.00;;;13.00;98.20;;;;;;5058214;28;20473;-90
2023/05/24 06:12:56;;;;;;;1.50;1.10;;;13.20;98.20;;;;;;5065546;28;20514;-87
2023/05/24 06:15:24;;;;;;;1.50;1.00;;;13.30;98.20;;;;;;5048136;28;20528;-88
2023/05/24 06:17:56;;;;;;;1.50;1.00;;;13.30;98.20;;;;;;5048010;28;20953;-88
2023/05/24 06:20:23;;;;;;;1.50;1.00;;;13.30;98.20;;;;;;5046097;28;20470;-89
2023/05/24 06:22:51;;;;;;;1.50;1.00;;;13.20;98.20;;;;;;5049811;28;20451;-88
2023/05/24 06:25:19;;;;;;;1.50;0.90;;;13.30;98.20;;;;;;5052153;28;20917;-89
2023/05/24 06:27:46;;;;;;;1.50;1.00;;;13.50;98.20;;;;;;5056047;28;20462;-89
2023/05/24 06:30:14;;;;;;;1.50;1.00;;;13.90;98.20;;;;;;5050358;28;20450;-89
2023/05/24 06:32:42;;;;;;;1.50;0.90;;;14.10;98.20;;;;;;5058847;28;20477;-88
2023/05/24 06:35:10;;;;;;;1.50;1.00;;;14.30;98.10;;;;;;5052141;28;20498;-88
2023/05/24 06:37:39;;;;;;;1.50;1.00;;;14.50;98.20;;;;;;5048799;28;20489;-89
2023/05/24 06:40:08;;;;;;;6.80;1.53;;;14.70;98.20;;;;;;5053592;28;20454;-89
2023/05/24 06:42:38;;;;;;;1.50;1.00;;;15.00;98.20;;;;;;5060063;28;20511;-88
2023/05/24 06:45:07;;;;;;;1.50;0.90;;;15.30;96.60;;;;;;5053677;28;20514;-89
2023/05/24 06:47:35;;;;;;;1.50;0.90;;;15.40;96.00;;;;;;5046987;28;20497;-88
2023/05/24 06:50:04;;;;;;;1.50;0.90;;;15.40;96.30;;;;;;5037922;28;20466;-88
2023/05/24 06:52:30;;;;;;;1.50;1.00;;;15.30;96.40;;;;;;5045282;28;20500;-89
2023/05/24 06:54:57;;;;;;;3.20;2.33;;;15.30;97.10;;;;;;5041177;28;20490;-85
2023/05/24 06:57:24;;;;;;;1.50;1.00;;;15.30;97.10;;;;;;5042081;28;21018;-86
2023/05/24 06:59:51;;;;;;;1.50;0.90;;;15.40;97.30;;;;;;5034738;28;21156;-88
2023/05/24 07:02:18;;;;;;;1.50;1.00;;;15.60;96.60;;;;;;5051119;28;20463;-87
2023/05/24 07:04:44;;;;;;;1.50;0.90;;;15.80;96.80;;;;;;5040686;28;20540;-89
2023/05/24 07:07:13;;;;;;;1.47;0.93;;;16.10;96.20;;;;;;5051328;28;20987;-88
2023/05/24 07:09:40;;;;;;;1.50;1.00;;;16.40;94.10;;;;;;5055951;28;20546;-88
2023/05/24 07:12:07;;;;;;;1.50;0.90;;;16.30;93.70;;;;;;5043182;28;20465;-89
2023/05/24 07:14:34;;;;;;;1.50;0.90;;;16.20;92.90;;;;;;5036338;28;20489;-89
2023/05/24 07:17:01;;;;;;;1.50;1.00;;;16.20;92.70;;;;;;5044312;28;20462;-90
2023/05/24 07:19:28;;;;;;;1.50;0.97;;;16.20;93.50;;;;;;5046103;28;20458;-91
2023/05/24 07:21:55;;;;;;;1.43;0.90;;;16.10;93.60;;;;;;5041614;28;20709;-91
2023/05/24 07:24:24;;;;;;;1.50;0.90;;;16.00;94.90;;;;;;5051469;28;20478;-90
2023/05/24 07:27:08;;;;;;;1.50;1.00;;;15.90;94.30;;;;;;5041070;28;20495;-89
2023/05/24 07:35:50;;;;;;;1.47;0.90;;;15.70;94.80;;;;;;5044415;28;20486;-89
2023/05/24 07:38:17;;;;;;;1.50;1.00;;;15.60;94.60;;;;;;5046333;28;20984;-89
2023/05/24 07:40:45;;;;;;;1.43;0.90;;;15.60;95.20;;;;;;5051500;28;20473;-91
2023/05/24 07:46:11;;;;;;;1.47;0.90;;;15.20;94.10;;;;;;4976712;28;20440;-88
2023/05/24 07:48:37;;;;;;;1.50;1.00;;;15.10;94.70;;;;;;5044032;28;20518;-89
2023/05/24 07:51:22;;;;;;;1.50;0.90;;;14.90;95.00;;;;;;5040175;28;20464;-90
2023/05/24 07:53:49;;;;;;;1.50;0.90;;;14.70;95.30;;;;;;5047499;28;20912;-90
2023/05/24 07:56:17;;;;;;;1.50;0.90;;;14.70;96.00;;;;;;5043104;28;20466;-90
2023/05/24 07:58:45;;;;;;;1.50;1.00;;;14.70;96.30;;;;;;5039945;28;20455;-92
2023/05/24 08:01:12;;;;;;;1.40;0.90;;;14.70;96.30;;;;;;5047771;28;20458;-88
2023/05/24 08:03:39;;;;;;;1.50;1.10;;;14.70;95.40;;;;;;5041360;28;20462;-89
2023/05/24 08:06:06;;;;;;;1.50;1.00;;;14.60;96.10;;;;;;5042539;28;20551;-89
2023/05/24 08:08:33;;;;;;;1.50;0.90;;;14.80;97.80;;;;;;5048918;28;20455;-88
2023/05/24 08:10:59;;;;;;;1.50;1.00;;;15.10;98.20;;;;;;5043992;28;20482;-87
2023/05/24 08:13:28;;;;;;;1.47;0.90;;;15.30;95.30;;;;;;5037611;28;20475;-87
2023/05/24 08:15:55;;;;;;;1.60;1.30;;;15.40;93.60;;;;;;5049461;28;20501;-90
2023/05/24 08:18:22;;;;;;;1.47;0.90;;;15.30;92.90;;;;;;5048293;28;20463;-90
2023/05/24 08:20:49;;;;;;;1.43;0.90;;;15.10;93.90;;;;;;5048949;28;20496;-88
2023/05/24 08:23:15;;;;;;;1.47;0.90;;;14.90;94.90;;;;;;5048235;28;20462;-89
2023/05/24 08:25:42;;;;;;;1.47;0.90;;;14.90;95.40;;;;;;5050986;28;20483;-88
2023/05/24 08:28:09;;;;;;;1.50;1.00;;;14.80;95.70;;;;;;5047738;28;20484;-91
2023/05/24 08:30:53;;;;;;;1.47;0.90;;;14.70;95.40;;;;;;5043674;28;20550;-89
2023/05/24 08:33:23;;;;;;;1.50;1.00;;;14.70;95.40;;;;;;5040320;28;20991;-90
2023/05/24 08:35:50;;;;;;;1.47;1.00;;;14.70;96.40;;;;;;5038371;28;20483;-89
2023/05/24 08:38:17;;;;;;;1.50;0.90;;;14.70;96.40;;;;;;5047685;28;20522;-89
2023/05/24 08:40:45;;;;;;;1.40;1.00;;;14.70;96.00;;;;;;5051783;28;20812;-89
2023/05/24 08:43:19;;;;;;;1.50;1.20;;;14.60;96.40;;;;;;5051518;28;20643;-89
2023/05/24 08:45:45;;;;;;;1.43;0.90;;;14.50;96.50;;;;;;5045904;28;20492;-87
2023/05/24 08:48:14;;;;;;;1.40;0.90;;;14.50;96.80;;;;;;5045387;28;20468;-89
2023/05/24 08:50:43;;;;;;;1.50;0.90;;;14.50;96.50;;;;;;5043456;28;20486;-92
2023/05/24 08:53:11;;;;;;;1.47;1.00;;;14.50;96.10;;;;;;5050458;28;20544;-88
2023/05/24 08:55:38;;;;;;;1.43;1.00;;;14.60;96.30;;;;;;5053735;28;20482;-90
2023/05/24 08:58:06;;;;;;;1.47;0.90;;;14.70;96.20;;;;;;5052703;28;20466;-88
2023/05/24 09:00:33;;;;;;;1.50;1.10;;;15.00;95.90;;;;;;5050730;28;20481;-93
2023/05/24 09:03:01;;;;;;;1.50;0.90;;;15.40;96.90;;;;;;5048061;28;20477;-90
2023/05/24 09:05:30;;;;;;;1.50;0.90;;;15.90;94.30;;;;;;5050269;28;21075;-89
2023/05/24 09:08:00;;;;;;;1.50;0.90;;;16.50;94.20;;;;;;5048531;28;20550;-88
2023/05/24 09:10:30;;;;;;;1.50;0.90;;;16.90;89.90;;;;;;5042202;28;20484;-91
2023/05/24 09:12:58;;;;;;;1.50;0.90;;;17.10;90.20;;;;;;5054192;28;20458;-89
2023/05/24 09:15:25;;;;;;;1.43;0.90;;;17.20;87.70;;;;;;5050104;28;20493;-90
2023/05/24 09:17:51;;;;;;;1.50;0.90;;;17.20;88.40;;;;;;5048453;28;20474;-89
2023/05/24 09:20:19;;;;;;;1.50;0.90;;;17.10;88.80;;;;;;5050929;28;20830;-87
2023/05/24 09:22:52;;;;;;;1.47;0.90;;;17.00;88.10;;;;;;5052457;28;20962;-88
2023/05/24 09:25:20;;;;;;;1.50;1.10;;;16.80;89.10;;;;;;5049882;28;20821;-88
2023/05/24 09:27:51;;;;;;;1.50;1.00;;;16.60;88.60;;;;;;5043270;28;20543;-89
2023/05/24 09:30:18;;;;;;;1.47;0.90;;;16.50;90.00;;;;;;5051412;28;20746;-90
2023/05/24 09:32:56;;;;;;;1.47;0.90;;;16.40;91.50;;;;;;5043011;28;20535;-90
2023/05/24 09:35:25;;;;;;;1.47;0.90;;;16.40;90.40;;;;;;5039076;28;20487;-89
2023/05/24 09:37:56;;;;;;;1.50;1.00;;;16.40;90.80;;;;;;5048613;28;20463;-88
2023/05/24 09:40:23;;;;;;;1.43;0.97;;;16.40;90.80;;;;;;5042145;28;20923;-87
2023/05/24 09:43:02;;;;;;;1.47;0.93;;;16.50;90.40;;;;;;5045884;28;20457;-88
2023/05/24 09:45:29;;;;;;;1.50;0.90;;;16.70;91.40;;;;;;5045207;28;20482;-87
2023/05/24 09:47:56;;;;;;;1.50;0.90;;;16.90;90.60;;;;;;5039263;28;20471;-87
2023/05/24 09:50:23;;;;;;;1.40;0.90;;;17.00;89.30;;;;;;5042360;28;20467;-88
2023/05/24 09:52:53;;;;;;;1.50;0.90;;;17.00;89.50;;;;;;5041189;28;20462;-87
2023/05/24 09:55:22;;;;;;;1.47;0.90;;;17.00;90.10;;;;;;5041898;28;21116;-87
2023/05/24 09:57:51;;;;;;;1.47;0.90;;;17.00;90.10;;;;;;5043273;28;20542;-88
2023/05/24 10:00:22;;;;;;;1.50;0.90;;;17.20;90.30;;;;;;5047070;28;20490;-89
2023/05/24 10:03:02;;;;;;;1.50;0.90;;;17.40;88.70;;;;;;5042915;28;20467;-89
2023/05/24 10:05:29;;;;;;;1.50;0.90;;;17.60;88.50;;;;;;5043578;28;20490;-87
2023/05/24 10:07:57;;;;;;;1.50;0.90;;;17.80;88.30;;;;;;5038029;28;20477;-87
2023/05/24 10:10:28;;;;;;;1.50;0.90;;;17.80;86.30;;;;;;5044144;28;20908;-87
2023/05/24 10:12:56;;;;;;;1.50;0.90;;;17.70;86.90;;;;;;5045171;28;20497;-87
2023/05/24 10:15:23;;;;;;;1.50;0.90;;;17.70;84.70;;;;;;5050752;28;20482;-89
2023/05/24 10:17:50;;;;;;;1.50;0.90;;;17.50;84.30;;;;;;5052769;28;20829;-89
2023/05/24 10:20:17;;;;;;;1.50;0.90;;;17.50;86.10;;;;;;5052945;28;20550;-87
2023/05/24 10:22:46;;;;;;;2.03;1.83;;;17.50;86.00;;;;;;5049917;28;20467;-90
2023/05/24 10:25:24;;;;;;;1.47;0.90;;;17.60;86.10;;;;;;5050227;28;20475;-88
2023/05/24 10:27:57;;;;;;;1.50;0.90;;;17.90;86.70;;;;;;5046406;28;20535;-90
2023/05/24 10:30:30;;;;;;;1.47;0.90;;;18.00;85.00;;;;;;5049996;28;20531;-89
2023/05/24 10:32:59;;;;;;;1.47;1.00;;;18.10;85.60;;;;;;5048159;28;20452;-88
2023/05/24 10:35:27;;;;;;;1.47;0.90;;;18.10;85.50;;;;;;5047275;28;20491;-85
2023/05/24 10:37:54;;;;;;;1.50;0.90;;;18.20;83.70;;;;;;5046107;28;20458;-89
2023/05/24 10:40:33;;;;;;;1.43;0.90;;;18.20;85.20;;;;;;5052168;28;20463;-89
2023/05/24 10:43:22;;;;;;;1.40;0.90;;;18.30;85.70;;;;;;5052448;28;20447;-87
2023/05/24 10:45:50;;;;;;;1.60;1.10;;;18.40;84.00;;;;;;5040664;28;20792;-87
2023/05/24 10:48:34;;;;;;;1.50;1.10;;;18.40;84.70;;;;;;5048032;28;20481;-94
2023/05/24 10:51:22;;;;;;;1.50;0.90;;;18.30;84.90;;;;;;5048130;28;20577;-90
2023/05/24 10:53:50;;;;;;;1.60;1.00;;;18.30;85.00;;;;;;5051550;28;20661;-89
2023/05/24 10:56:19;;;;;;;1.43;0.90;;;18.30;85.50;;;;;;5051774;28;20465;-89
2023/05/24 10:58:59;;;;;;;1.47;0.90;;;18.20;84.90;;;;;;5047581;28;20488;-90
2023/05/24 11:01:27;;;;;;;1.47;0.90;;;18.30;86.00;;;;;;5051834;28;20458;-88
2023/05/24 11:04:05;;;;;;;1.40;0.90;;;18.50;86.30;;;;;;5062118;28;20508;-90
2023/05/24 11:06:49;;;;;;;1.50;0.90;;;18.70;85.50;;;;;;5043363;28;20551;-89
2023/05/24 11:09:18;;;;;;;1.47;0.90;;;19.00;85.00;;;;;;5052309;28;20485;-87
2023/05/24 11:11:47;;;;;;;1.50;0.90;;;19.20;80.50;;;;;;5057328;28;20465;-89
2023/05/24 11:14:19;;;;;;;1.47;0.90;;;19.30;80.60;;;;;;5050408;28;20500;-93
2023/05/24 11:16:49;;;;;;;1.47;0.90;;;19.60;81.10;;;;;;5039775;28;20839;-89
2023/05/24 11:19:18;;;;;;;1.50;1.00;;;20.00;80.50;;;;;;5053666;28;21018;-89
2023/05/24 11:22:04;;;;;;;1.50;0.90;;;20.10;78.90;;;;;;5052849;28;20454;-88
2023/05/24 11:24:40;;;;;;;1.50;0.90;;;20.00;78.20;;;;;;5040106;28;20509;-87
2023/05/24 11:27:07;;;;;;;1.50;0.90;;;19.70;79.10;;;;;;5039095;28;20471;-89
2023/05/24 11:29:42;;;;;;;1.50;0.90;;;19.30;79.70;;;;;;5050611;28;20461;-89
2023/05/24 11:32:09;;;;;;;1.70;1.60;;;18.90;80.00;;;;;;5050416;28;20462;-89
2023/05/24 11:34:36;;;;;;;1.50;0.90;;;18.60;81.30;;;;;;5045209;28;20489;-89
2023/05/24 11:37:06;;;;;;;1.50;0.90;;;18.30;81.50;;;;;;5058008;28;20453;-88
2023/05/24 11:39:34;;;;;;;1.50;0.90;;;18.00;82.20;;;;;;5052186;28;20450;-92
2023/05/24 11:42:03;;;;;;;1.50;0.90;;;17.80;83.00;;;;;;5053470;28;20545;-90
2023/05/24 11:44:32;;;;;;;1.43;0.90;;;17.60;83.30;;;;;;5048333;28;20478;-90
2023/05/24 11:47:01;;;;;;;1.47;0.90;;;17.50;83.90;;;;;;5047356;28;20471;-89
2023/05/24 11:49:34;;;;;;;1.50;0.93;;;17.20;83.70;;;;;;5049783;28;20459;-88
2023/05/24 11:52:03;;;;;;;1.50;0.90;;;17.00;85.30;;;;;;5061586;28;20956;-89
2023/05/24 11:54:33;;;;;;;1.47;0.90;;;16.90;84.90;;;;;;5046405;28;20510;-89
2023/05/24 11:57:00;;;;;;;1.50;0.97;;;16.80;85.90;;;;;;5044907;28;20985;-88
2023/05/24 11:59:29;;;;;;;1.50;0.90;;;16.70;85.20;;;;;;5051804;28;20458;-88
2023/05/24 12:02:03;;;;;;;1.47;0.90;;;16.60;86.30;;;;;;5053600;28;20509;-90
2023/05/24 12:04:31;;;;;;;1.60;1.43;;;16.60;87.10;;;;;;5055098;28;20478;-87
2023/05/24 12:06:59;;;;;;;1.50;0.90;;;16.70;87.50;;;;;;5041757;28;20467;-91
2023/05/24 12:09:27;;;;;;;1.47;0.90;;;16.70;87.00;;;;;;5051906;28;20492;-87
2023/05/24 12:11:54;;;;;;;1.50;0.90;;;16.80;87.50;;;;;;5046427;28;20481;-88
2023/05/24 12:14:26;;;;;;;1.47;1.00;;;16.90;85.50;;;;;;5045067;28;20488;-87
2023/05/24 12:16:58;;;;;;;1.50;1.00;;;16.90;85.50;;;;;;5049721;28;20576;-88
2023/05/24 12:19:33;;;;;;;1.50;1.00;;;16.90;85.70;;;;;;5050359;28;20525;-86
2023/05/24 12:22:01;;;;;;;1.43;0.90;;;16.80;84.70;;;;;;5046426;28;20526;-89
2023/05/24 12:24:28;;;;;;;1.50;0.90;;;16.80;84.40;;;;;;5044094;28;20467;-89
2023/05/24 12:27:01;;;;;;;1.47;0.90;;;16.70;85.80;;;;;;5051462;28;20514;-90
2023/05/24 12:29:32;;;;;;;1.43;0.90;;;16.70;84.60;;;;;;5067785;28;20913;-90
2023/05/24 12:31:59;;;;;;;1.43;0.90;;;16.80;85.90;;;;;;5056548;28;20468;-89
2023/05/24 12:34:36;;;;;;;1.50;0.93;;;17.00;85.20;;;;;;5056600;28;20487;-89
2023/05/24 12:37:14;;;;;;;1.50;1.00;;;17.20;86.10;;;;;;5059974;28;20552;-88
2023/05/24 12:39:49;;;;;;;1.47;0.90;;;17.40;84.40;;;;;;5056334;28;20465;-89
2023/05/24 12:42:16;;;;;;;1.50;1.00;;;17.60;84.80;;;;;;5058987;28;20454;-89
2023/05/24 12:44:44;;;;;;;1.47;0.90;;;17.80;84.20;;;;;;5054663;28;20494;-88
2023/05/24 12:47:11;;;;;;;1.50;0.90;;;18.00;82.90;;;;;;5051042;28;20467;-91
2023/05/24 12:49:39;;;;;;;1.50;0.90;;;18.10;81.80;;;;;;5052795;28;20573;-87
2023/05/24 12:52:06;;;;;;;1.50;1.00;;;18.30;82.90;;;;;;5059497;28;20486;-92
2023/05/24 12:54:33;;;;;;;1.47;0.90;;;18.40;82.70;;;;;;5055159;28;20519;-88
2023/05/24 12:57:01;;;;;;;1.47;0.90;;;18.60;80.80;;;;;;5053248;28;20504;-89
2023/05/24 12:59:28;;;;;;;1.43;0.90;;;18.70;81.40;;;;;;5047965;28;20454;-88
2023/05/24 13:01:55;;;;;;;1.50;0.90;;;19.00;80.90;;;;;;5055320;28;20477;-88
2023/05/24 13:04:24;;;;;;;1.47;0.90;;;19.00;79.00;;;;;;5056504;28;20565;-88
2023/05/24 13:06:53;;;;;;;1.47;0.90;;;19.10;79.50;;;;;;5053450;28;20470;-89
2023/05/24 13:09:21;;;;;;;1.47;0.90;;;19.20;79.30;;;;;;5054800;28;20497;-89